sensor_id;sensor_type;location;lat;lon;timestamp;P1;durP1;ratioP1;P2;durP2;ratioP2
33740;SDS011;20065;48.380;10.892;2022-08-19T00:00:38;9.67;;;7.70;;
33740;SDS011;20065;48.380;10.892;2022-08-19T00:03:25;9.90;;;8.03;;
33740;SDS011;20065;48.380;10.892;2022-08-19T00:06:11;9.20;;;8.07;;
33740;SDS011;20065;48.380;10.892;2022-08-19T00:08:58;10.17;;;8.10;;
33740;SDS011;20065;48.380;10.892;2022-08-19T00:11:46;8.43;;;7.13;;
33740;SDS011;20065;48.380;10.892;2022-08-19T00:14:32;10.50;;;8.60;;
33740;SDS011;20065;48.380;10.892;2022-08-19T00:17:18;8.87;;;7.80;;
33740;SDS011;20065;48.380;10.892;2022-08-19T00:20:05;8.37;;;7.27;;
33740;SDS011;20065;48.380;10.892;2022-08-19T00:22:52;11.70;;;7.50;;
33740;SDS011;20065;48.380;10.892;2022-08-19T00:25:39;8.20;;;5.60;;
33740;SDS011;20065;48.380;10.892;2022-08-19T00:28:26;6.87;;;5.30;;
33740;SDS011;20065;48.380;10.892;2022-08-19T00:31:12;5.60;;;4.00;;
33740;SDS011;20065;48.380;10.892;2022-08-19T00:33:59;5.37;;;4.40;;
33740;SDS011;20065;48.380;10.892;2022-08-19T00:36:45;8.30;;;3.40;;
33740;SDS011;20065;48.380;10.892;2022-08-19T00:39:32;4.60;;;3.40;;
33740;SDS011;20065;48.380;10.892;2022-08-19T00:42:19;4.30;;;2.90;;
33740;SDS011;20065;48.380;10.892;2022-08-19T00:45:11;4.10;;;2.70;;
33740;SDS011;20065;48.380;10.892;2022-08-19T00:48:00;4.57;;;2.27;;
33740;SDS011;20065;48.380;10.892;2022-08-19T00:50:50;4.20;;;2.60;;
33740;SDS011;20065;48.380;10.892;2022-08-19T00:53:38;4.10;;;2.90;;
33740;SDS011;20065;48.380;10.892;2022-08-19T00:56:25;6.30;;;3.17;;
33740;SDS011;20065;48.380;10.892;2022-08-19T00:59:16;6.20;;;3.50;;
33740;SDS011;20065;48.380;10.892;2022-08-19T01:02:06;4.90;;;3.13;;
33740;SDS011;20065;48.380;10.892;2022-08-19T01:04:53;7.20;;;4.10;;
33740;SDS011;20065;48.380;10.892;2022-08-19T01:07:41;8.00;;;5.13;;
33740;SDS011;20065;48.380;10.892;2022-08-19T01:10:29;7.43;;;4.73;;
33740;SDS011;20065;48.380;10.892;2022-08-19T01:13:19;7.20;;;5.60;;
33740;SDS011;20065;48.380;10.892;2022-08-19T01:16:08;8.80;;;6.20;;
33740;SDS011;20065;48.380;10.892;2022-08-19T01:18:56;9.47;;;6.57;;
33740;SDS011;20065;48.380;10.892;2022-08-19T01:21:44;6.90;;;5.43;;
33740;SDS011;20065;48.380;10.892;2022-08-19T01:24:40;8.80;;;6.23;;
33740;SDS011;20065;48.380;10.892;2022-08-19T01:27:27;9.00;;;6.70;;
33740;SDS011;20065;48.380;10.892;2022-08-19T01:30:29;9.03;;;6.90;;
33740;SDS011;20065;48.380;10.892;2022-08-19T01:33:17;9.30;;;7.10;;
33740;SDS011;20065;48.380;10.892;2022-08-19T01:36:06;10.97;;;7.40;;
33740;SDS011;20065;48.380;10.892;2022-08-19T01:38:55;10.10;;;8.03;;
33740;SDS011;20065;48.380;10.892;2022-08-19T01:41:41;11.70;;;8.73;;
33740;SDS011;20065;48.380;10.892;2022-08-19T01:44:28;11.00;;;8.23;;
33740;SDS011;20065;48.380;10.892;2022-08-19T01:47:14;12.07;;;9.70;;
33740;SDS011;20065;48.380;10.892;2022-08-19T01:50:00;12.50;;;9.57;;
33740;SDS011;20065;48.380;10.892;2022-08-19T01:52:47;13.37;;;10.97;;
33740;SDS011;20065;48.380;10.892;2022-08-19T01:55:34;14.17;;;10.77;;
33740;SDS011;20065;48.380;10.892;2022-08-19T01:58:22;16.93;;;11.67;;
33740;SDS011;20065;48.380;10.892;2022-08-19T02:01:16;16.17;;;11.97;;
33740;SDS011;20065;48.380;10.892;2022-08-19T02:04:03;19.07;;;12.57;;
33740;SDS011;20065;48.380;10.892;2022-08-19T02:06:51;17.20;;;12.70;;
33740;SDS011;20065;48.380;10.892;2022-08-19T02:09:37;16.97;;;13.40;;
33740;SDS011;20065;48.380;10.892;2022-08-19T02:12:26;19.77;;;14.30;;
33740;SDS011;20065;48.380;10.892;2022-08-19T02:15:13;20.20;;;15.97;;
33740;SDS011;20065;48.380;10.892;2022-08-19T02:17:59;20.87;;;15.80;;
33740;SDS011;20065;48.380;10.892;2022-08-19T02:20:45;23.03;;;17.37;;
33740;SDS011;20065;48.380;10.892;2022-08-19T02:23:32;21.30;;;16.83;;
33740;SDS011;20065;48.380;10.892;2022-08-19T02:26:19;21.20;;;17.40;;
33740;SDS011;20065;48.380;10.892;2022-08-19T02:29:05;21.77;;;17.03;;
33740;SDS011;20065;48.380;10.892;2022-08-19T02:31:51;24.07;;;18.33;;
33740;SDS011;20065;48.380;10.892;2022-08-19T02:34:37;24.83;;;19.30;;
33740;SDS011;20065;48.380;10.892;2022-08-19T02:37:23;26.83;;;19.30;;
33740;SDS011;20065;48.380;10.892;2022-08-19T02:40:28;28.50;;;20.20;;
33740;SDS011;20065;48.380;10.892;2022-08-19T02:43:19;28.50;;;20.07;;
33740;SDS011;20065;48.380;10.892;2022-08-19T02:49:04;26.70;;;20.57;;
33740;SDS011;20065;48.380;10.892;2022-08-19T02:51:52;26.33;;;22.17;;
33740;SDS011;20065;48.380;10.892;2022-08-19T02:54:42;28.97;;;22.90;;
33740;SDS011;20065;48.380;10.892;2022-08-19T02:57:30;31.97;;;24.63;;
33740;SDS011;20065;48.380;10.892;2022-08-19T03:00:19;27.23;;;21.80;;
33740;SDS011;20065;48.380;10.892;2022-08-19T03:03:06;30.53;;;24.40;;
33740;SDS011;20065;48.380;10.892;2022-08-19T03:06:02;32.97;;;26.23;;
33740;SDS011;20065;48.380;10.892;2022-08-19T03:08:56;32.87;;;24.90;;
33740;SDS011;20065;48.380;10.892;2022-08-19T03:11:43;39.60;;;28.17;;
33740;SDS011;20065;48.380;10.892;2022-08-19T03:14:32;31.70;;;25.53;;
33740;SDS011;20065;48.380;10.892;2022-08-19T03:17:19;37.00;;;30.07;;
33740;SDS011;20065;48.380;10.892;2022-08-19T03:20:05;39.77;;;32.27;;
33740;SDS011;20065;48.380;10.892;2022-08-19T03:22:52;43.20;;;31.07;;
33740;SDS011;20065;48.380;10.892;2022-08-19T03:25:39;41.70;;;31.20;;
33740;SDS011;20065;48.380;10.892;2022-08-19T03:28:28;42.60;;;33.20;;
33740;SDS011;20065;48.380;10.892;2022-08-19T03:31:16;40.90;;;32.80;;
33740;SDS011;20065;48.380;10.892;2022-08-19T03:34:05;41.03;;;31.47;;
33740;SDS011;20065;48.380;10.892;2022-08-19T03:36:51;39.00;;;31.30;;
33740;SDS011;20065;48.380;10.892;2022-08-19T03:39:38;42.47;;;33.70;;
33740;SDS011;20065;48.380;10.892;2022-08-19T03:42:25;41.30;;;32.90;;
33740;SDS011;20065;48.380;10.892;2022-08-19T03:45:12;42.17;;;34.33;;
33740;SDS011;20065;48.380;10.892;2022-08-19T03:47:58;43.20;;;33.60;;
33740;SDS011;20065;48.380;10.892;2022-08-19T03:50:44;46.60;;;35.20;;
33740;SDS011;20065;48.380;10.892;2022-08-19T03:53:31;45.57;;;35.63;;
33740;SDS011;20065;48.380;10.892;2022-08-19T03:56:18;45.33;;;35.43;;
33740;SDS011;20065;48.380;10.892;2022-08-19T03:59:05;49.70;;;36.80;;
33740;SDS011;20065;48.380;10.892;2022-08-19T04:01:54;45.80;;;33.40;;
33740;SDS011;20065;48.380;10.892;2022-08-19T04:04:42;49.77;;;38.27;;
33740;SDS011;20065;48.380;10.892;2022-08-19T04:07:29;51.73;;;40.97;;
33740;SDS011;20065;48.380;10.892;2022-08-19T04:10:15;53.03;;;39.67;;
33740;SDS011;20065;48.380;10.892;2022-08-19T04:13:02;54.27;;;40.40;;
33740;SDS011;20065;48.380;10.892;2022-08-19T04:15:52;58.43;;;42.80;;
33740;SDS011;20065;48.380;10.892;2022-08-19T04:18:39;56.67;;;41.40;;
33740;SDS011;20065;48.380;10.892;2022-08-19T04:21:26;49.60;;;39.80;;
33740;SDS011;20065;48.380;10.892;2022-08-19T04:24:14;49.70;;;36.93;;
33740;SDS011;20065;48.380;10.892;2022-08-19T04:27:04;45.83;;;37.60;;
33740;SDS011;20065;48.380;10.892;2022-08-19T04:29:51;50.20;;;38.07;;
33740;SDS011;20065;48.380;10.892;2022-08-19T04:32:39;48.20;;;38.90;;
33740;SDS011;20065;48.380;10.892;2022-08-19T04:35:25;49.60;;;38.20;;
33740;SDS011;20065;48.380;10.892;2022-08-19T04:38:12;47.07;;;37.13;;
33740;SDS011;20065;48.380;10.892;2022-08-19T04:40:59;43.97;;;34.50;;
33740;SDS011;20065;48.380;10.892;2022-08-19T04:44:04;46.87;;;36.63;;
33740;SDS011;20065;48.380;10.892;2022-08-19T04:46:50;53.20;;;38.40;;
33740;SDS011;20065;48.380;10.892;2022-08-19T04:49:37;46.43;;;36.40;;
33740;SDS011;20065;48.380;10.892;2022-08-19T04:52:23;49.67;;;37.00;;
33740;SDS011;20065;48.380;10.892;2022-08-19T04:55:10;46.53;;;34.67;;
33740;SDS011;20065;48.380;10.892;2022-08-19T04:57:57;45.37;;;34.23;;
33740;SDS011;20065;48.380;10.892;2022-08-19T05:00:43;44.47;;;33.33;;
33740;SDS011;20065;48.380;10.892;2022-08-19T05:03:29;45.33;;;32.60;;
33740;SDS011;20065;48.380;10.892;2022-08-19T05:06:19;42.33;;;33.90;;
33740;SDS011;20065;48.380;10.892;2022-08-19T05:09:06;41.37;;;33.87;;
33740;SDS011;20065;48.380;10.892;2022-08-19T05:11:52;41.23;;;32.70;;
33740;SDS011;20065;48.380;10.892;2022-08-19T05:14:42;42.50;;;33.70;;
33740;SDS011;20065;48.380;10.892;2022-08-19T05:17:31;39.87;;;31.57;;
33740;SDS011;20065;48.380;10.892;2022-08-19T05:20:17;46.37;;;33.17;;
33740;SDS011;20065;48.380;10.892;2022-08-19T05:23:22;45.63;;;33.90;;
33740;SDS011;20065;48.380;10.892;2022-08-19T05:26:08;44.93;;;33.03;;
33740;SDS011;20065;48.380;10.892;2022-08-19T05:28:56;43.37;;;34.20;;
33740;SDS011;20065;48.380;10.892;2022-08-19T05:31:42;47.33;;;35.10;;
33740;SDS011;20065;48.380;10.892;2022-08-19T05:34:29;47.50;;;34.07;;
33740;SDS011;20065;48.380;10.892;2022-08-19T05:37:15;48.83;;;33.73;;
33740;SDS011;20065;48.380;10.892;2022-08-19T05:40:02;38.90;;;30.10;;
33740;SDS011;20065;48.380;10.892;2022-08-19T05:42:49;39.00;;;30.67;;
33740;SDS011;20065;48.380;10.892;2022-08-19T05:45:39;46.00;;;33.30;;
33740;SDS011;20065;48.380;10.892;2022-08-19T05:48:27;42.00;;;33.00;;
33740;SDS011;20065;48.380;10.892;2022-08-19T05:51:13;40.20;;;31.50;;
33740;SDS011;20065;48.380;10.892;2022-08-19T05:54:01;43.13;;;32.37;;
33740;SDS011;20065;48.380;10.892;2022-08-19T05:56:48;41.37;;;31.63;;
33740;SDS011;20065;48.380;10.892;2022-08-19T05:59:36;44.37;;;32.37;;
33740;SDS011;20065;48.380;10.892;2022-08-19T06:02:22;47.47;;;33.67;;
33740;SDS011;20065;48.380;10.892;2022-08-19T06:05:08;39.90;;;31.80;;
33740;SDS011;20065;48.380;10.892;2022-08-19T06:07:54;47.13;;;34.43;;
33740;SDS011;20065;48.380;10.892;2022-08-19T06:10:41;38.90;;;29.60;;
33740;SDS011;20065;48.380;10.892;2022-08-19T06:13:27;46.57;;;32.67;;
33740;SDS011;20065;48.380;10.892;2022-08-19T06:16:13;44.60;;;33.73;;
33740;SDS011;20065;48.380;10.892;2022-08-19T06:19:09;51.27;;;35.20;;
33740;SDS011;20065;48.380;10.892;2022-08-19T06:22:01;49.90;;;34.27;;
33740;SDS011;20065;48.380;10.892;2022-08-19T06:24:47;53.80;;;38.17;;
33740;SDS011;20065;48.380;10.892;2022-08-19T06:27:38;51.83;;;36.13;;
33740;SDS011;20065;48.380;10.892;2022-08-19T06:30:24;49.47;;;37.00;;
33740;SDS011;20065;48.380;10.892;2022-08-19T06:33:10;52.43;;;37.33;;
33740;SDS011;20065;48.380;10.892;2022-08-19T06:35:57;51.17;;;38.47;;
33740;SDS011;20065;48.380;10.892;2022-08-19T06:38:43;56.23;;;38.37;;
33740;SDS011;20065;48.380;10.892;2022-08-19T06:41:29;51.83;;;38.07;;
33740;SDS011;20065;48.380;10.892;2022-08-19T06:44:17;50.10;;;38.30;;
33740;SDS011;20065;48.380;10.892;2022-08-19T06:47:06;52.53;;;37.87;;
33740;SDS011;20065;48.380;10.892;2022-08-19T06:49:57;52.80;;;37.90;;
33740;SDS011;20065;48.380;10.892;2022-08-19T06:52:48;54.30;;;37.90;;
33740;SDS011;20065;48.380;10.892;2022-08-19T06:55:34;55.60;;;38.07;;
33740;SDS011;20065;48.380;10.892;2022-08-19T06:58:20;55.87;;;41.20;;
33740;SDS011;20065;48.380;10.892;2022-08-19T07:01:06;52.57;;;38.77;;
33740;SDS011;20065;48.380;10.892;2022-08-19T07:03:53;52.07;;;39.80;;
33740;SDS011;20065;48.380;10.892;2022-08-19T07:06:39;59.27;;;41.50;;
33740;SDS011;20065;48.380;10.892;2022-08-19T07:09:25;49.80;;;39.20;;
33740;SDS011;20065;48.380;10.892;2022-08-19T07:12:13;59.13;;;41.13;;
33740;SDS011;20065;48.380;10.892;2022-08-19T07:15:05;58.83;;;41.07;;
33740;SDS011;20065;48.380;10.892;2022-08-19T07:17:53;56.53;;;41.77;;
33740;SDS011;20065;48.380;10.892;2022-08-19T07:20:40;64.83;;;43.43;;
33740;SDS011;20065;48.380;10.892;2022-08-19T07:23:28;70.73;;;45.77;;
33740;SDS011;20065;48.380;10.892;2022-08-19T07:26:16;60.97;;;45.00;;
33740;SDS011;20065;48.380;10.892;2022-08-19T07:29:11;63.70;;;44.27;;
33740;SDS011;20065;48.380;10.892;2022-08-19T07:31:58;72.87;;;46.90;;
33740;SDS011;20065;48.380;10.892;2022-08-19T07:34:44;66.83;;;45.00;;
33740;SDS011;20065;48.380;10.892;2022-08-19T07:37:30;77.07;;;49.10;;
33740;SDS011;20065;48.380;10.892;2022-08-19T07:40:17;76.60;;;50.43;;
33740;SDS011;20065;48.380;10.892;2022-08-19T07:43:03;73.13;;;47.97;;
33740;SDS011;20065;48.380;10.892;2022-08-19T07:45:49;82.50;;;50.00;;
33740;SDS011;20065;48.380;10.892;2022-08-19T07:48:35;78.93;;;49.87;;
33740;SDS011;20065;48.380;10.892;2022-08-19T07:51:21;76.57;;;48.97;;
33740;SDS011;20065;48.380;10.892;2022-08-19T07:54:08;83.77;;;49.17;;
33740;SDS011;20065;48.380;10.892;2022-08-19T07:56:54;87.87;;;51.43;;
33740;SDS011;20065;48.380;10.892;2022-08-19T07:59:41;99.37;;;50.80;;
33740;SDS011;20065;48.380;10.892;2022-08-19T08:02:27;98.07;;;52.53;;
33740;SDS011;20065;48.380;10.892;2022-08-19T08:05:13;90.90;;;52.63;;
33740;SDS011;20065;48.380;10.892;2022-08-19T08:08:17;85.50;;;51.30;;
33740;SDS011;20065;48.380;10.892;2022-08-19T08:11:27;84.70;;;51.40;;
33740;SDS011;20065;48.380;10.892;2022-08-19T08:14:13;86.53;;;51.37;;
33740;SDS011;20065;48.380;10.892;2022-08-19T08:17:01;94.13;;;53.17;;
33740;SDS011;20065;48.380;10.892;2022-08-19T08:19:48;84.50;;;52.67;;
33740;SDS011;20065;48.380;10.892;2022-08-19T08:22:36;87.37;;;51.90;;
33740;SDS011;20065;48.380;10.892;2022-08-19T08:25:40;94.27;;;53.67;;
33740;SDS011;20065;48.380;10.892;2022-08-19T08:28:26;84.17;;;50.70;;
33740;SDS011;20065;48.380;10.892;2022-08-19T08:31:13;92.07;;;53.10;;
33740;SDS011;20065;48.380;10.892;2022-08-19T08:34:00;84.87;;;51.70;;
33740;SDS011;20065;48.380;10.892;2022-08-19T08:36:47;92.30;;;53.60;;
33740;SDS011;20065;48.380;10.892;2022-08-19T08:39:33;87.03;;;52.03;;
33740;SDS011;20065;48.380;10.892;2022-08-19T08:45:21;91.40;;;52.90;;
33740;SDS011;20065;48.380;10.892;2022-08-19T08:48:44;80.30;;;50.50;;
33740;SDS011;20065;48.380;10.892;2022-08-19T08:51:39;79.00;;;48.23;;
33740;SDS011;20065;48.380;10.892;2022-08-19T08:54:34;87.87;;;54.10;;
33740;SDS011;20065;48.380;10.892;2022-08-19T08:57:49;88.17;;;50.53;;
33740;SDS011;20065;48.380;10.892;2022-08-19T09:00:41;91.03;;;53.50;;
33740;SDS011;20065;48.380;10.892;2022-08-19T09:03:30;92.53;;;52.77;;
33740;SDS011;20065;48.380;10.892;2022-08-19T09:09:20;89.40;;;53.50;;
33740;SDS011;20065;48.380;10.892;2022-08-19T09:12:23;93.90;;;54.40;;
33740;SDS011;20065;48.380;10.892;2022-08-19T09:15:12;93.80;;;55.47;;
33740;SDS011;20065;48.380;10.892;2022-08-19T09:18:00;94.33;;;53.00;;
33740;SDS011;20065;48.380;10.892;2022-08-19T09:20:48;87.90;;;53.37;;
33740;SDS011;20065;48.380;10.892;2022-08-19T09:23:35;87.93;;;55.03;;
33740;SDS011;20065;48.380;10.892;2022-08-19T09:26:22;94.07;;;54.17;;
33740;SDS011;20065;48.380;10.892;2022-08-19T09:29:09;83.37;;;52.20;;
33740;SDS011;20065;48.380;10.892;2022-08-19T09:31:55;88.03;;;53.03;;
33740;SDS011;20065;48.380;10.892;2022-08-19T09:34:41;100.70;;;57.40;;
33740;SDS011;20065;48.380;10.892;2022-08-19T09:37:28;83.10;;;51.97;;
33740;SDS011;20065;48.380;10.892;2022-08-19T09:40:14;85.93;;;53.67;;
33740;SDS011;20065;48.380;10.892;2022-08-19T09:43:01;88.03;;;53.23;;
33740;SDS011;20065;48.380;10.892;2022-08-19T09:45:47;88.67;;;51.67;;
33740;SDS011;20065;48.380;10.892;2022-08-19T09:48:34;88.10;;;50.50;;
33740;SDS011;20065;48.380;10.892;2022-08-19T09:51:22;89.00;;;52.17;;
33740;SDS011;20065;48.380;10.892;2022-08-19T09:54:09;89.40;;;52.90;;
33740;SDS011;20065;48.380;10.892;2022-08-19T09:56:57;91.90;;;55.27;;
33740;SDS011;20065;48.380;10.892;2022-08-19T09:59:45;90.33;;;54.73;;
33740;SDS011;20065;48.380;10.892;2022-08-19T10:02:31;87.70;;;52.87;;
33740;SDS011;20065;48.380;10.892;2022-08-19T10:05:17;92.90;;;53.47;;
33740;SDS011;20065;48.380;10.892;2022-08-19T10:08:23;91.73;;;54.93;;
33740;SDS011;20065;48.380;10.892;2022-08-19T10:11:11;87.30;;;54.80;;
33740;SDS011;20065;48.380;10.892;2022-08-19T10:13:59;95.87;;;55.70;;
33740;SDS011;20065;48.380;10.892;2022-08-19T10:16:47;87.90;;;50.00;;
33740;SDS011;20065;48.380;10.892;2022-08-19T10:19:33;80.30;;;50.70;;
33740;SDS011;20065;48.380;10.892;2022-08-19T10:22:21;84.13;;;52.17;;
33740;SDS011;20065;48.380;10.892;2022-08-19T10:25:08;96.47;;;53.90;;
33740;SDS011;20065;48.380;10.892;2022-08-19T10:27:54;88.30;;;52.20;;
33740;SDS011;20065;48.380;10.892;2022-08-19T10:30:40;85.67;;;51.03;;
33740;SDS011;20065;48.380;10.892;2022-08-19T10:33:27;92.97;;;54.77;;
33740;SDS011;20065;48.380;10.892;2022-08-19T10:36:14;96.50;;;52.90;;
33740;SDS011;20065;48.380;10.892;2022-08-19T10:39:07;92.47;;;50.00;;
33740;SDS011;20065;48.380;10.892;2022-08-19T10:41:54;93.87;;;52.03;;
33740;SDS011;20065;48.380;10.892;2022-08-19T10:44:41;85.33;;;51.83;;
33740;SDS011;20065;48.380;10.892;2022-08-19T10:47:27;89.40;;;50.37;;
33740;SDS011;20065;48.380;10.892;2022-08-19T10:50:13;91.50;;;49.50;;
33740;SDS011;20065;48.380;10.892;2022-08-19T10:53:18;93.57;;;50.53;;
33740;SDS011;20065;48.380;10.892;2022-08-19T10:56:09;97.17;;;50.70;;
33740;SDS011;20065;48.380;10.892;2022-08-19T10:59:14;97.07;;;51.10;;
33740;SDS011;20065;48.380;10.892;2022-08-19T11:02:01;84.87;;;48.10;;
33740;SDS011;20065;48.380;10.892;2022-08-19T11:04:49;74.70;;;42.67;;
33740;SDS011;20065;48.380;10.892;2022-08-19T11:07:38;90.57;;;45.47;;
33740;SDS011;20065;48.380;10.892;2022-08-19T11:10:25;75.73;;;43.80;;
33740;SDS011;20065;48.380;10.892;2022-08-19T11:13:18;80.37;;;43.37;;
33740;SDS011;20065;48.380;10.892;2022-08-19T11:16:13;73.67;;;40.90;;
33740;SDS011;20065;48.380;10.892;2022-08-19T11:19:03;86.93;;;46.13;;
33740;SDS011;20065;48.380;10.892;2022-08-19T11:21:52;89.63;;;44.97;;
33740;SDS011;20065;48.380;10.892;2022-08-19T11:24:40;79.97;;;41.80;;
33740;SDS011;20065;48.380;10.892;2022-08-19T11:27:33;84.77;;;43.57;;
33740;SDS011;20065;48.380;10.892;2022-08-19T11:30:28;64.27;;;35.70;;
33740;SDS011;20065;48.380;10.892;2022-08-19T11:33:16;56.23;;;30.40;;
33740;SDS011;20065;48.380;10.892;2022-08-19T11:36:05;63.60;;;31.00;;
33740;SDS011;20065;48.380;10.892;2022-08-19T11:38:56;44.53;;;26.73;;
33740;SDS011;20065;48.380;10.892;2022-08-19T11:41:46;42.60;;;24.30;;
33740;SDS011;20065;48.380;10.892;2022-08-19T11:44:32;32.90;;;18.87;;
33740;SDS011;20065;48.380;10.892;2022-08-19T11:47:19;28.60;;;16.97;;
33740;SDS011;20065;48.380;10.892;2022-08-19T11:50:05;28.43;;;17.47;;
33740;SDS011;20065;48.380;10.892;2022-08-19T11:52:55;23.83;;;15.27;;
33740;SDS011;20065;48.380;10.892;2022-08-19T11:55:41;23.97;;;15.53;;
33740;SDS011;20065;48.380;10.892;2022-08-19T11:58:28;29.83;;;18.43;;
33740;SDS011;20065;48.380;10.892;2022-08-19T12:01:17;36.97;;;23.53;;
33740;SDS011;20065;48.380;10.892;2022-08-19T12:04:04;39.50;;;24.83;;
33740;SDS011;20065;48.380;10.892;2022-08-19T12:06:51;53.50;;;31.20;;
33740;SDS011;20065;48.380;10.892;2022-08-19T12:09:37;51.07;;;32.30;;
33740;SDS011;20065;48.380;10.892;2022-08-19T12:12:24;52.13;;;31.50;;
33740;SDS011;20065;48.380;10.892;2022-08-19T12:15:12;50.97;;;30.77;;
33740;SDS011;20065;48.380;10.892;2022-08-19T12:18:00;51.07;;;32.07;;
33740;SDS011;20065;48.380;10.892;2022-08-19T12:20:46;44.70;;;29.93;;
33740;SDS011;20065;48.380;10.892;2022-08-19T12:23:32;45.80;;;29.70;;
33740;SDS011;20065;48.380;10.892;2022-08-19T12:26:19;44.03;;;27.97;;
33740;SDS011;20065;48.380;10.892;2022-08-19T12:29:05;42.33;;;27.33;;
33740;SDS011;20065;48.380;10.892;2022-08-19T12:31:53;36.73;;;24.37;;
33740;SDS011;20065;48.380;10.892;2022-08-19T12:34:46;36.63;;;24.20;;
33740;SDS011;20065;48.380;10.892;2022-08-19T12:37:32;31.10;;;21.63;;
33740;SDS011;20065;48.380;10.892;2022-08-19T12:40:19;26.33;;;18.10;;
33740;SDS011;20065;48.380;10.892;2022-08-19T12:43:06;26.80;;;19.53;;
33740;SDS011;20065;48.380;10.892;2022-08-19T12:45:52;29.27;;;20.13;;
33740;SDS011;20065;48.380;10.892;2022-08-19T12:48:38;26.90;;;19.10;;
33740;SDS011;20065;48.380;10.892;2022-08-19T12:51:27;24.67;;;18.03;;
33740;SDS011;20065;48.380;10.892;2022-08-19T12:54:14;23.23;;;17.30;;
33740;SDS011;20065;48.380;10.892;2022-08-19T12:57:00;22.03;;;15.87;;
33740;SDS011;20065;48.380;10.892;2022-08-19T12:59:53;24.57;;;16.93;;
33740;SDS011;20065;48.380;10.892;2022-08-19T13:02:41;22.60;;;16.90;;
33740;SDS011;20065;48.380;10.892;2022-08-19T13:05:30;21.73;;;16.70;;
33740;SDS011;20065;48.380;10.892;2022-08-19T13:08:18;18.57;;;15.13;;
33740;SDS011;20065;48.380;10.892;2022-08-19T13:11:12;24.23;;;18.33;;
33740;SDS011;20065;48.380;10.892;2022-08-19T13:14:03;17.63;;;14.40;;
33740;SDS011;20065;48.380;10.892;2022-08-19T13:16:50;20.70;;;16.17;;
33740;SDS011;20065;48.380;10.892;2022-08-19T13:19:36;21.10;;;15.63;;
33740;SDS011;20065;48.380;10.892;2022-08-19T13:22:23;20.87;;;16.07;;
33740;SDS011;20065;48.380;10.892;2022-08-19T13:25:10;20.90;;;16.00;;
33740;SDS011;20065;48.380;10.892;2022-08-19T13:27:58;19.43;;;15.80;;
33740;SDS011;20065;48.380;10.892;2022-08-19T13:30:46;22.00;;;17.50;;
33740;SDS011;20065;48.380;10.892;2022-08-19T13:33:51;18.47;;;15.47;;
33740;SDS011;20065;48.380;10.892;2022-08-19T13:36:39;24.07;;;17.40;;
33740;SDS011;20065;48.380;10.892;2022-08-19T13:39:25;21.50;;;17.80;;
33740;SDS011;20065;48.380;10.892;2022-08-19T13:42:12;22.00;;;17.77;;
33740;SDS011;20065;48.380;10.892;2022-08-19T13:44:59;25.73;;;19.27;;
33740;SDS011;20065;48.380;10.892;2022-08-19T13:47:46;26.80;;;19.57;;
33740;SDS011;20065;48.380;10.892;2022-08-19T13:50:35;24.33;;;20.27;;
33740;SDS011;20065;48.380;10.892;2022-08-19T13:53:26;31.30;;;23.80;;
33740;SDS011;20065;48.380;10.892;2022-08-19T13:56:14;33.70;;;24.10;;
33740;SDS011;20065;48.380;10.892;2022-08-19T13:59:02;35.10;;;25.77;;
33740;SDS011;20065;48.380;10.892;2022-08-19T14:01:48;37.70;;;26.40;;
33740;SDS011;20065;48.380;10.892;2022-08-19T14:04:35;38.97;;;30.27;;
33740;SDS011;20065;48.380;10.892;2022-08-19T14:07:22;40.60;;;30.27;;
33740;SDS011;20065;48.380;10.892;2022-08-19T14:10:10;44.13;;;32.00;;
33740;SDS011;20065;48.380;10.892;2022-08-19T14:12:58;41.73;;;28.73;;
33740;SDS011;20065;48.380;10.892;2022-08-19T14:15:46;42.00;;;30.57;;
33740;SDS011;20065;48.380;10.892;2022-08-19T14:18:32;46.50;;;32.87;;
33740;SDS011;20065;48.380;10.892;2022-08-19T14:21:22;46.57;;;32.00;;
33740;SDS011;20065;48.380;10.892;2022-08-19T14:24:10;45.37;;;32.50;;
33740;SDS011;20065;48.380;10.892;2022-08-19T14:26:57;48.03;;;34.87;;
33740;SDS011;20065;48.380;10.892;2022-08-19T14:29:44;43.50;;;31.07;;
33740;SDS011;20065;48.380;10.892;2022-08-19T14:32:34;53.93;;;35.80;;
33740;SDS011;20065;48.380;10.892;2022-08-19T14:35:20;47.07;;;33.87;;
33740;SDS011;20065;48.380;10.892;2022-08-19T14:38:12;44.60;;;32.50;;
33740;SDS011;20065;48.380;10.892;2022-08-19T14:41:08;41.43;;;31.40;;
33740;SDS011;20065;48.380;10.892;2022-08-19T14:44:01;40.03;;;28.80;;
33740;SDS011;20065;48.380;10.892;2022-08-19T14:46:47;40.27;;;30.57;;
33740;SDS011;20065;48.380;10.892;2022-08-19T14:49:35;36.43;;;27.43;;
33740;SDS011;20065;48.380;10.892;2022-08-19T14:52:22;35.00;;;27.10;;
33740;SDS011;20065;48.380;10.892;2022-08-19T14:55:08;35.90;;;26.90;;
33740;SDS011;20065;48.380;10.892;2022-08-19T14:57:54;33.47;;;26.00;;
33740;SDS011;20065;48.380;10.892;2022-08-19T15:00:41;34.27;;;26.80;;
33740;SDS011;20065;48.380;10.892;2022-08-19T15:03:28;34.17;;;26.90;;
33740;SDS011;20065;48.380;10.892;2022-08-19T15:06:16;33.47;;;26.73;;
33740;SDS011;20065;48.380;10.892;2022-08-19T15:09:12;35.13;;;26.90;;
33740;SDS011;20065;48.380;10.892;2022-08-19T15:12:01;34.10;;;26.50;;
33740;SDS011;20065;48.380;10.892;2022-08-19T15:14:48;37.30;;;26.97;;
33740;SDS011;20065;48.380;10.892;2022-08-19T15:17:36;29.10;;;22.93;;
33740;SDS011;20065;48.380;10.892;2022-08-19T15:20:22;31.63;;;23.67;;
33740;SDS011;20065;48.380;10.892;2022-08-19T15:23:09;27.63;;;21.80;;
33740;SDS011;20065;48.380;10.892;2022-08-19T15:25:56;27.47;;;21.87;;
33740;SDS011;20065;48.380;10.892;2022-08-19T15:28:42;27.70;;;21.30;;
33740;SDS011;20065;48.380;10.892;2022-08-19T15:31:29;25.33;;;19.97;;
33740;SDS011;20065;48.380;10.892;2022-08-19T15:34:21;24.37;;;19.23;;
33740;SDS011;20065;48.380;10.892;2022-08-19T15:37:08;24.67;;;19.97;;
33740;SDS011;20065;48.380;10.892;2022-08-19T15:39:55;26.50;;;21.40;;
33740;SDS011;20065;48.380;10.892;2022-08-19T15:42:41;26.73;;;21.47;;
33740;SDS011;20065;48.380;10.892;2022-08-19T15:45:29;26.00;;;21.40;;
33740;SDS011;20065;48.380;10.892;2022-08-19T15:48:18;27.93;;;20.80;;
33740;SDS011;20065;48.380;10.892;2022-08-19T15:51:04;24.57;;;17.93;;
33740;SDS011;20065;48.380;10.892;2022-08-19T15:53:51;20.93;;;15.70;;
33740;SDS011;20065;48.380;10.892;2022-08-19T15:56:38;21.57;;;16.63;;
33740;SDS011;20065;48.380;10.892;2022-08-19T15:59:50;23.20;;;16.40;;
33740;SDS011;20065;48.380;10.892;2022-08-19T16:02:55;22.57;;;17.73;;
33740;SDS011;20065;48.380;10.892;2022-08-19T16:06:00;19.00;;;15.50;;
33740;SDS011;20065;48.380;10.892;2022-08-19T16:09:05;26.40;;;18.33;;
33740;SDS011;20065;48.380;10.892;2022-08-19T16:11:51;20.97;;;17.37;;
33740;SDS011;20065;48.380;10.892;2022-08-19T16:14:37;22.00;;;17.70;;
33740;SDS011;20065;48.380;10.892;2022-08-19T16:17:24;19.70;;;16.57;;
33740;SDS011;20065;48.380;10.892;2022-08-19T16:20:10;20.93;;;17.00;;
33740;SDS011;20065;48.380;10.892;2022-08-19T16:23:05;19.03;;;16.70;;